createdAt,value
2018-11-22T12:17:17.412Z,8.70
2018-11-22T12:19:50.173Z,8.70
2018-11-22T12:22:22.252Z,8.70
2018-11-22T12:24:55.515Z,8.60
2018-11-22T12:27:27.413Z,8.60
2018-11-22T12:29:59.571Z,8.50
2018-11-22T12:32:36.074Z,8.40
2018-11-22T12:35:14.993Z,8.40
2018-11-22T12:37:51.532Z,8.40
2018-11-22T12:40:23.573Z,8.40
2018-11-22T12:42:55.532Z,8.40
2018-11-22T12:45:28.811Z,8.50
2018-11-22T12:48:00.993Z,8.40
2018-11-22T12:50:32.794Z,8.40
2018-11-22T12:53:04.172Z,8.40
2018-11-22T12:55:36.232Z,8.30
2018-11-22T12:58:08.792Z,8.40
2018-11-22T13:00:40.631Z,8.50
2018-11-22T13:03:12.659Z,8.50
2018-11-22T13:05:44.572Z,8.60
2018-11-22T13:08:16.392Z,8.70
2018-11-22T13:10:48.113Z,8.60
2018-11-22T13:13:19.656Z,8.60
2018-11-22T13:15:51.592Z,8.50
2018-11-22T13:18:24.952Z,8.60
2018-11-22T13:20:56.872Z,8.70
2018-11-22T13:23:29.914Z,8.70
2018-11-22T13:26:02.086Z,8.70
2018-11-22T13:28:34.112Z,8.70
2018-11-22T13:31:05.752Z,8.70
2018-11-22T13:33:37.975Z,8.70
2018-11-22T13:36:10.252Z,8.70
2018-11-22T13:38:42.092Z,8.80
2018-11-22T13:41:13.333Z,8.80
2018-11-22T13:43:45.457Z,8.90
2018-11-22T13:46:16.172Z,8.90
2018-11-22T13:48:47.371Z,8.90
2018-11-22T13:51:18.315Z,8.80
2018-11-22T13:53:50.242Z,8.80
2018-11-22T13:56:23.584Z,8.80
2018-11-22T13:58:55.166Z,8.90
2018-11-22T14:01:27.184Z,9.00
2018-11-22T14:04:00.184Z,9.00
2018-11-22T14:06:31.547Z,9.00
2018-11-22T14:09:03.669Z,9.00
2018-11-22T14:11:35.953Z,8.90
2018-11-22T14:14:08.462Z,9.00
2018-11-22T14:16:40.761Z,9.00
2018-11-22T14:19:12.806Z,9.00
2018-11-22T14:21:44.633Z,9.00
2018-11-22T14:24:16.590Z,9.00
2018-11-22T14:26:47.276Z,8.90
2018-11-22T14:29:19.188Z,9.00
2018-11-22T14:31:51.073Z,9.00
2018-11-22T14:34:23.561Z,8.90
2018-11-22T14:36:55.766Z,8.90
2018-11-22T14:39:27.206Z,9.00
2018-11-22T14:42:00.805Z,9.00
2018-11-22T14:44:34.351Z,8.90
2018-11-22T14:47:06.414Z,8.90
2018-11-22T14:49:38.407Z,8.90
2018-11-22T14:52:10.693Z,8.90
2018-11-22T14:54:42.120Z,8.90
2018-11-22T14:57:14.452Z,8.90
2018-11-22T14:59:46.273Z,8.90
2018-11-22T15:02:18.554Z,8.90
2018-11-22T15:04:51.014Z,8.90
2018-11-22T15:07:28.587Z,8.90
2018-11-22T15:09:55.715Z,8.90
2018-11-22T15:12:27.253Z,8.90
2018-11-22T15:14:59.678Z,8.90
2018-11-22T15:17:31.936Z,9.00
2018-11-22T15:20:04.712Z,8.90
2018-11-22T15:22:36.113Z,8.90
2018-11-22T15:25:10.313Z,8.90
2018-11-22T15:27:43.612Z,8.80
2018-11-22T15:30:18.733Z,8.70
2018-11-22T15:32:50.472Z,8.70
2018-11-22T15:35:24.132Z,8.70
2018-11-22T15:37:56.593Z,8.60
2018-11-22T15:40:29.272Z,8.60
2018-11-22T15:43:02.072Z,8.50
2018-11-22T15:45:35.126Z,8.50
2018-11-22T15:48:05.893Z,8.30
2018-11-22T15:50:38.561Z,8.30
2018-11-22T15:53:10.516Z,8.30
2018-11-22T15:55:42.432Z,8.20
2018-11-22T15:58:14.653Z,8.10
2018-11-22T16:00:46.558Z,8.10
2018-11-22T16:03:19.072Z,8.20
2018-11-22T16:05:50.872Z,8.30
2018-11-22T16:08:22.753Z,8.20
2018-11-22T16:10:54.752Z,8.20
2018-11-22T16:13:27.089Z,8.10
2018-11-22T16:15:58.852Z,8.00
2018-11-22T16:18:29.632Z,7.90
2018-11-22T16:21:01.393Z,7.90
2018-11-22T16:23:32.984Z,7.80
2018-11-22T16:26:04.644Z,7.80
2018-11-22T16:28:36.105Z,7.80
2018-11-22T16:31:08.503Z,7.80
2018-11-22T16:33:40.323Z,7.70
2018-11-22T16:36:12.665Z,7.70
2018-11-22T16:38:44.883Z,7.70
2018-11-22T16:41:17.025Z,7.70
2018-11-22T16:43:49.360Z,7.60
2018-11-22T16:46:21.412Z,7.50
2018-11-22T16:48:53.520Z,7.50
2018-11-22T16:51:25.554Z,7.50
2018-11-22T16:53:57.374Z,7.40
2018-11-22T16:56:29.195Z,7.40
2018-11-22T16:59:00.474Z,7.40
2018-11-22T17:01:32.931Z,7.40
2018-11-22T17:04:04.144Z,7.40
2018-11-22T17:06:37.052Z,7.30
2018-11-22T17:09:09.705Z,7.30
2018-11-22T17:11:42.084Z,7.30
2018-11-22T17:14:14.125Z,7.30
2018-11-22T17:16:45.967Z,7.30
2018-11-22T17:19:16.699Z,7.30
2018-11-22T17:21:48.300Z,7.30
2018-11-22T17:24:19.738Z,7.30
2018-11-22T17:26:51.799Z,7.30
2018-11-22T17:29:26.058Z,7.30
2018-11-22T17:31:57.002Z,7.20
2018-11-22T17:34:29.136Z,7.20
2018-11-22T17:37:01.080Z,7.30
2018-11-22T17:39:33.049Z,7.20
2018-11-22T17:42:04.235Z,7.20
2018-11-22T17:44:35.755Z,7.20
2018-11-22T17:47:07.155Z,7.10
2018-11-22T17:49:38.352Z,7.10
2018-11-22T17:52:10.755Z,7.10
2018-11-22T17:54:43.246Z,7.10
2018-11-22T17:57:14.746Z,7.10
2018-11-22T17:59:46.864Z,7.10
2018-11-22T18:02:19.149Z,7.10
2018-11-22T18:04:51.596Z,7.10
2018-11-22T18:07:23.050Z,7.10
2018-11-22T18:09:55.196Z,7.10
2018-11-22T18:12:27.957Z,7.10
2018-11-22T18:15:00.813Z,7.10
2018-11-22T18:17:34.371Z,7.00
2018-11-22T18:20:06.478Z,7.00
2018-11-22T18:22:39.278Z,6.90
2018-11-22T18:25:16.032Z,6.90
2018-11-22T18:27:48.985Z,6.90
2018-11-22T18:30:22.853Z,6.90
2018-11-22T18:32:56.196Z,7.00
2018-11-22T18:35:28.053Z,7.00
2018-11-22T18:37:59.913Z,6.90
2018-11-22T18:40:32.994Z,6.90
2018-11-22T18:43:05.635Z,6.90
2018-11-22T18:45:39.792Z,6.90
2018-11-22T18:48:13.675Z,6.90
2018-11-22T18:50:47.055Z,6.80
2018-11-22T18:53:19.954Z,6.80
2018-11-22T18:55:52.413Z,6.80
2018-11-22T18:58:25.113Z,6.70
2018-11-22T19:00:57.013Z,6.70
2018-11-22T19:03:28.713Z,6.70
2018-11-22T19:06:01.053Z,6.60
2018-11-22T19:08:34.633Z,6.60
2018-11-22T19:11:07.493Z,6.60
2018-11-22T19:13:39.434Z,6.70
2018-11-22T19:16:12.733Z,6.60
2018-11-22T19:18:44.354Z,6.60
2018-11-22T19:21:16.419Z,6.60
2018-11-22T19:23:48.516Z,6.60
2018-11-22T19:26:20.675Z,6.60
2018-11-22T19:28:53.812Z,6.50
2018-11-22T19:31:26.813Z,6.60
2018-11-22T19:33:58.233Z,6.60
2018-11-22T19:36:30.873Z,6.60
2018-11-22T19:39:03.033Z,6.60
2018-11-22T19:41:35.232Z,6.60
2018-11-22T19:44:07.194Z,6.60
2018-11-22T19:46:38.873Z,6.50
2018-11-22T19:49:10.773Z,6.40
2018-11-22T19:51:43.194Z,6.40
2018-11-22T19:54:15.292Z,6.40
2018-11-22T19:56:47.214Z,6.40
2018-11-22T19:59:19.093Z,6.30
2018-11-22T20:01:51.415Z,6.30
2018-11-22T20:04:22.553Z,6.30
2018-11-22T20:06:55.633Z,6.30
2018-11-22T20:09:26.873Z,6.30
2018-11-22T20:12:00.272Z,6.30
2018-11-22T20:14:32.493Z,6.20
2018-11-22T20:17:05.253Z,6.20
2018-11-22T20:19:37.013Z,6.10
2018-11-22T20:22:09.595Z,6.10
2018-11-22T20:24:41.450Z,6.00
2018-11-22T20:27:13.893Z,6.00
2018-11-22T20:29:46.374Z,6.00
2018-11-22T20:32:18.233Z,6.00
2018-11-22T20:34:50.232Z,5.90
2018-11-22T20:37:22.393Z,5.90
2018-11-22T20:39:54.492Z,5.80
2018-11-22T20:42:26.933Z,5.80
2018-11-22T20:44:58.434Z,5.80
2018-11-22T20:47:31.274Z,5.80
2018-11-22T20:50:02.553Z,5.80
2018-11-22T20:52:34.794Z,5.80
2018-11-22T20:55:06.713Z,5.80
2018-11-22T20:57:38.716Z,5.80
2018-11-22T21:00:13.912Z,5.80
2018-11-22T21:02:46.813Z,5.70
2018-11-22T21:05:19.913Z,5.70
2018-11-22T21:07:51.953Z,5.60
2018-11-22T21:10:24.773Z,5.60
2018-11-22T21:12:57.217Z,5.60
2018-11-22T21:15:31.953Z,5.60
2018-11-22T21:18:05.394Z,5.60
2018-11-22T21:20:38.754Z,5.50
2018-11-22T21:23:10.280Z,5.50
2018-11-22T21:25:42.234Z,5.50
2018-11-22T21:28:14.273Z,5.50
2018-11-22T21:30:46.132Z,5.50
2018-11-22T21:33:18.354Z,5.50
2018-11-22T21:35:50.135Z,5.50
2018-11-22T21:38:22.552Z,5.50
2018-11-22T21:40:54.175Z,5.60
2018-11-22T21:43:26.835Z,5.60
2018-11-22T21:45:59.932Z,5.60
2018-11-22T21:48:31.633Z,5.70
2018-11-22T21:51:03.872Z,5.70
2018-11-22T21:53:36.053Z,5.70
2018-11-22T21:56:07.993Z,5.70
2018-11-22T21:58:40.413Z,5.70
2018-11-22T22:01:12.172Z,5.70
2018-11-22T22:03:44.654Z,5.70
2018-11-22T22:06:16.354Z,5.70
2018-11-22T22:08:48.653Z,5.80
2018-11-22T22:11:20.092Z,5.80
2018-11-22T22:13:53.074Z,5.80
2018-11-22T22:16:24.794Z,5.80
2018-11-22T22:18:57.692Z,5.80
2018-11-22T22:21:29.433Z,5.80
2018-11-22T22:24:02.394Z,5.90
2018-11-22T22:26:34.253Z,5.90
2018-11-22T22:29:06.493Z,5.90
2018-11-22T22:31:38.034Z,5.90
2018-11-22T22:34:10.473Z,5.90
2018-11-22T22:36:42.832Z,5.90
2018-11-22T22:39:14.553Z,5.90
2018-11-22T22:41:45.614Z,5.90
2018-11-22T22:44:16.654Z,5.90
2018-11-22T22:46:49.133Z,5.90
2018-11-22T22:49:20.533Z,5.90
2018-11-22T22:51:53.274Z,5.90
2018-11-22T22:54:25.113Z,6.00
2018-11-22T22:56:57.433Z,5.90
2018-11-22T22:59:29.113Z,5.90
2018-11-22T23:02:01.113Z,5.90
2018-11-22T23:04:33.594Z,5.90
2018-11-22T23:07:05.293Z,5.90
2018-11-22T23:09:38.273Z,5.90
2018-11-22T23:12:10.333Z,6.00
2018-11-22T23:14:43.036Z,6.00
2018-11-22T23:17:15.553Z,6.00
2018-11-22T23:19:47.374Z,6.10
2018-11-22T23:22:19.453Z,6.10
2018-11-22T23:24:51.913Z,6.20
2018-11-22T23:27:23.673Z,6.20
2018-11-22T23:29:55.993Z,6.30
2018-11-22T23:32:27.992Z,6.40
2018-11-22T23:35:00.036Z,6.40
2018-11-22T23:37:31.634Z,6.40
2018-11-22T23:40:04.213Z,6.50
2018-11-22T23:42:36.453Z,6.50
2018-11-22T23:45:10.393Z,6.40
2018-11-22T23:47:42.913Z,6.30
2018-11-22T23:50:23.573Z,6.20
2018-11-22T23:52:58.173Z,6.10
2018-11-22T23:55:31.258Z,6.10
2018-11-22T23:58:03.614Z,6.10
